sensor_id;sensor_type;location;lat;lon;timestamp;temperature;humidity
72865;DHT22;61000;48.120;11.548;2023-01-05T00:01:46;10.20;99.90
72865;DHT22;61000;48.120;11.548;2023-01-05T00:04:15;10.20;99.90
72865;DHT22;61000;48.120;11.548;2023-01-05T00:06:42;10.20;99.90
72865;DHT22;61000;48.120;11.548;2023-01-05T00:09:11;10.30;99.90
72865;DHT22;61000;48.120;11.548;2023-01-05T00:11:38;10.20;99.90
72865;DHT22;61000;48.120;11.548;2023-01-05T00:14:24;10.20;99.90
72865;DHT22;61000;48.120;11.548;2023-01-05T00:17:11;10.30;99.90
72865;DHT22;61000;48.120;11.548;2023-01-05T00:19:57;10.30;99.90
72865;DHT22;61000;48.120;11.548;2023-01-05T00:22:44;10.30;99.90
72865;DHT22;61000;48.120;11.548;2023-01-05T00:25:14;10.30;99.90
72865;DHT22;61000;48.120;11.548;2023-01-05T00:27:42;10.30;99.90
72865;DHT22;61000;48.120;11.548;2023-01-05T00:30:12;10.30;99.90
72865;DHT22;61000;48.120;11.548;2023-01-05T00:32:40;10.30;99.90
72865;DHT22;61000;48.120;11.548;2023-01-05T00:35:09;10.30;99.90
72865;DHT22;61000;48.120;11.548;2023-01-05T00:37:37;10.30;99.90
72865;DHT22;61000;48.120;11.548;2023-01-05T00:40:05;10.30;99.90
72865;DHT22;61000;48.120;11.548;2023-01-05T00:42:32;10.40;99.90
72865;DHT22;61000;48.120;11.548;2023-01-05T00:44:59;10.40;99.90
72865;DHT22;61000;48.120;11.548;2023-01-05T00:47:26;10.40;99.90
72865;DHT22;61000;48.120;11.548;2023-01-05T00:49:53;10.40;99.90
72865;DHT22;61000;48.120;11.548;2023-01-05T00:52:21;10.40;99.90
72865;DHT22;61000;48.120;11.548;2023-01-05T00:54:48;10.40;99.90
72865;DHT22;61000;48.120;11.548;2023-01-05T00:57:16;10.50;99.90
72865;DHT22;61000;48.120;11.548;2023-01-05T00:59:43;10.40;99.90
72865;DHT22;61000;48.120;11.548;2023-01-05T01:02:10;10.50;99.90
72865;DHT22;61000;48.120;11.548;2023-01-05T01:04:37;10.50;99.90
72865;DHT22;61000;48.120;11.548;2023-01-05T01:07:05;10.50;99.90
72865;DHT22;61000;48.120;11.548;2023-01-05T01:09:33;10.40;99.90
72865;DHT22;61000;48.120;11.548;2023-01-05T01:12:02;10.50;99.90
72865;DHT22;61000;48.120;11.548;2023-01-05T01:14:29;10.50;99.90
72865;DHT22;61000;48.120;11.548;2023-01-05T01:16:56;10.50;99.90
72865;DHT22;61000;48.120;11.548;2023-01-05T01:19:24;10.50;99.90
72865;DHT22;61000;48.120;11.548;2023-01-05T01:21:51;10.50;99.90
72865;DHT22;61000;48.120;11.548;2023-01-05T01:24:21;10.50;99.90
72865;DHT22;61000;48.120;11.548;2023-01-05T01:26:49;10.50;99.90
72865;DHT22;61000;48.120;11.548;2023-01-05T01:29:17;10.50;99.90
72865;DHT22;61000;48.120;11.548;2023-01-05T01:31:45;10.40;99.90
72865;DHT22;61000;48.120;11.548;2023-01-05T01:34:12;10.50;99.90
72865;DHT22;61000;48.120;11.548;2023-01-05T01:36:41;10.40;99.90
72865;DHT22;61000;48.120;11.548;2023-01-05T01:39:09;10.40;99.90
72865;DHT22;61000;48.120;11.548;2023-01-05T01:41:38;10.40;99.90
72865;DHT22;61000;48.120;11.548;2023-01-05T01:47:08;10.40;99.90
72865;DHT22;61000;48.120;11.548;2023-01-05T01:49:38;10.40;99.90
72865;DHT22;61000;48.120;11.548;2023-01-05T01:52:06;10.50;99.90
72865;DHT22;61000;48.120;11.548;2023-01-05T01:54:33;10.50;99.90
72865;DHT22;61000;48.120;11.548;2023-01-05T01:57:00;10.50;99.90
72865;DHT22;61000;48.120;11.548;2023-01-05T01:59:27;10.40;99.90
72865;DHT22;61000;48.120;11.548;2023-01-05T02:01:56;10.50;99.90
72865;DHT22;61000;48.120;11.548;2023-01-05T02:04:28;10.40;99.90
72865;DHT22;61000;48.120;11.548;2023-01-05T02:06:56;10.50;99.90
72865;DHT22;61000;48.120;11.548;2023-01-05T02:09:23;10.50;99.90
72865;DHT22;61000;48.120;11.548;2023-01-05T02:12:00;10.50;99.90
72865;DHT22;61000;48.120;11.548;2023-01-05T02:14:33;10.50;99.90
72865;DHT22;61000;48.120;11.548;2023-01-05T02:17:10;10.50;99.90
72865;DHT22;61000;48.120;11.548;2023-01-05T02:20:23;10.50;99.90
72865;DHT22;61000;48.120;11.548;2023-01-05T02:23:31;10.40;99.90
72865;DHT22;61000;48.120;11.548;2023-01-05T02:26:39;10.40;99.90
72865;DHT22;61000;48.120;11.548;2023-01-05T02:32:02;10.50;99.90
72865;DHT22;61000;48.120;11.548;2023-01-05T02:34:37;10.50;99.90
72865;DHT22;61000;48.120;11.548;2023-01-05T02:37:09;10.60;99.90
72865;DHT22;61000;48.120;11.548;2023-01-05T02:39:42;10.50;99.90
72865;DHT22;61000;48.120;11.548;2023-01-05T02:42:14;10.60;99.90
72865;DHT22;61000;48.120;11.548;2023-01-05T02:44:43;10.60;99.90
72865;DHT22;61000;48.120;11.548;2023-01-05T02:47:34;10.50;99.90
72865;DHT22;61000;48.120;11.548;2023-01-05T02:50:09;10.50;99.90
72865;DHT22;61000;48.120;11.548;2023-01-05T02:52:43;10.50;99.90
72865;DHT22;61000;48.120;11.548;2023-01-05T02:55:13;10.40;99.90
72865;DHT22;61000;48.120;11.548;2023-01-05T02:57:45;10.30;99.90
72865;DHT22;61000;48.120;11.548;2023-01-05T03:00:23;10.30;99.90
72865;DHT22;61000;48.120;11.548;2023-01-05T03:02:55;10.20;99.90
72865;DHT22;61000;48.120;11.548;2023-01-05T03:05:28;10.20;99.90
72865;DHT22;61000;48.120;11.548;2023-01-05T03:07:58;10.10;99.90
72865;DHT22;61000;48.120;11.548;2023-01-05T03:10:37;10.10;99.90
72865;DHT22;61000;48.120;11.548;2023-01-05T03:13:26;10.00;99.90
72865;DHT22;61000;48.120;11.548;2023-01-05T03:16:19;10.00;99.90
72865;DHT22;61000;48.120;11.548;2023-01-05T03:18:50;10.00;99.90
72865;DHT22;61000;48.120;11.548;2023-01-05T03:21:37;9.90;99.90
72865;DHT22;61000;48.120;11.548;2023-01-05T03:24:22;9.80;99.90
72865;DHT22;61000;48.120;11.548;2023-01-05T03:27:09;9.80;99.90
72865;DHT22;61000;48.120;11.548;2023-01-05T03:29:55;9.80;99.90
72865;DHT22;61000;48.120;11.548;2023-01-05T03:32:44;9.80;99.90
72865;DHT22;61000;48.120;11.548;2023-01-05T03:35:36;9.80;99.90
72865;DHT22;61000;48.120;11.548;2023-01-05T03:38:11;9.70;99.90
72865;DHT22;61000;48.120;11.548;2023-01-05T03:40:42;9.70;99.90
72865;DHT22;61000;48.120;11.548;2023-01-05T03:43:10;9.80;99.90
72865;DHT22;61000;48.120;11.548;2023-01-05T03:45:41;9.80;99.90
72865;DHT22;61000;48.120;11.548;2023-01-05T03:48:14;9.80;99.90
72865;DHT22;61000;48.120;11.548;2023-01-05T03:50:43;9.80;99.90
72865;DHT22;61000;48.120;11.548;2023-01-05T03:53:13;9.90;99.90
72865;DHT22;61000;48.120;11.548;2023-01-05T03:55:42;9.90;99.90
72865;DHT22;61000;48.120;11.548;2023-01-05T03:58:09;10.00;99.90
72865;DHT22;61000;48.120;11.548;2023-01-05T04:00:40;10.00;99.90
72865;DHT22;61000;48.120;11.548;2023-01-05T04:03:10;10.00;99.90
72865;DHT22;61000;48.120;11.548;2023-01-05T04:05:37;10.00;99.90
72865;DHT22;61000;48.120;11.548;2023-01-05T04:08:07;10.10;99.90
72865;DHT22;61000;48.120;11.548;2023-01-05T04:10:35;10.10;99.90
72865;DHT22;61000;48.120;11.548;2023-01-05T04:13:01;10.10;99.90
72865;DHT22;61000;48.120;11.548;2023-01-05T04:15:29;10.10;99.90
72865;DHT22;61000;48.120;11.548;2023-01-05T04:17:57;10.10;99.90
72865;DHT22;61000;48.120;11.548;2023-01-05T04:20:24;10.20;99.90
72865;DHT22;61000;48.120;11.548;2023-01-05T04:22:52;10.20;99.90
72865;DHT22;61000;48.120;11.548;2023-01-05T04:25:22;10.20;99.90
72865;DHT22;61000;48.120;11.548;2023-01-05T04:27:49;10.30;99.90
72865;DHT22;61000;48.120;11.548;2023-01-05T04:30:17;10.40;99.90
72865;DHT22;61000;48.120;11.548;2023-01-05T04:32:44;10.40;99.90
72865;DHT22;61000;48.120;11.548;2023-01-05T04:35:14;10.40;99.90
72865;DHT22;61000;48.120;11.548;2023-01-05T04:37:43;10.50;99.90
72865;DHT22;61000;48.120;11.548;2023-01-05T04:40:11;10.50;99.90
72865;DHT22;61000;48.120;11.548;2023-01-05T04:42:48;10.50;99.90
72865;DHT22;61000;48.120;11.548;2023-01-05T04:45:15;10.50;99.90
72865;DHT22;61000;48.120;11.548;2023-01-05T04:47:43;10.60;99.90
72865;DHT22;61000;48.120;11.548;2023-01-05T04:50:14;10.60;99.90
72865;DHT22;61000;48.120;11.548;2023-01-05T04:52:42;10.60;99.90
72865;DHT22;61000;48.120;11.548;2023-01-05T04:55:09;10.60;99.90
72865;DHT22;61000;48.120;11.548;2023-01-05T04:57:37;10.60;99.90
72865;DHT22;61000;48.120;11.548;2023-01-05T05:00:08;10.60;99.90
72865;DHT22;61000;48.120;11.548;2023-01-05T05:02:36;10.60;99.90
72865;DHT22;61000;48.120;11.548;2023-01-05T05:05:03;10.60;99.90
72865;DHT22;61000;48.120;11.548;2023-01-05T05:07:32;10.60;99.90
72865;DHT22;61000;48.120;11.548;2023-01-05T05:10:02;10.60;99.90
72865;DHT22;61000;48.120;11.548;2023-01-05T05:12:29;10.60;99.90
72865;DHT22;61000;48.120;11.548;2023-01-05T05:14:56;10.60;99.90
72865;DHT22;61000;48.120;11.548;2023-01-05T05:17:24;10.60;99.90
72865;DHT22;61000;48.120;11.548;2023-01-05T05:19:51;10.60;99.90
72865;DHT22;61000;48.120;11.548;2023-01-05T05:22:20;10.60;99.90
72865;DHT22;61000;48.120;11.548;2023-01-05T05:24:47;10.60;99.90
72865;DHT22;61000;48.120;11.548;2023-01-05T05:27:14;10.60;99.90
72865;DHT22;61000;48.120;11.548;2023-01-05T05:29:41;10.60;99.90
72865;DHT22;61000;48.120;11.548;2023-01-05T05:32:08;10.60;99.90
72865;DHT22;61000;48.120;11.548;2023-01-05T05:34:36;10.60;99.90
72865;DHT22;61000;48.120;11.548;2023-01-05T05:37:03;10.60;99.90
72865;DHT22;61000;48.120;11.548;2023-01-05T05:39:30;10.60;99.90
72865;DHT22;61000;48.120;11.548;2023-01-05T05:41:56;10.60;99.90
72865;DHT22;61000;48.120;11.548;2023-01-05T05:44:23;10.60;99.90
72865;DHT22;61000;48.120;11.548;2023-01-05T05:46:50;10.60;99.90
72865;DHT22;61000;48.120;11.548;2023-01-05T05:49:17;10.60;99.90
72865;DHT22;61000;48.120;11.548;2023-01-05T05:51:45;10.60;99.90
72865;DHT22;61000;48.120;11.548;2023-01-05T05:54:12;10.60;99.90
72865;DHT22;61000;48.120;11.548;2023-01-05T05:56:39;10.60;99.90
72865;DHT22;61000;48.120;11.548;2023-01-05T05:59:06;10.70;99.90
72865;DHT22;61000;48.120;11.548;2023-01-05T06:01:32;10.60;99.90
72865;DHT22;61000;48.120;11.548;2023-01-05T06:03:59;10.60;99.90
72865;DHT22;61000;48.120;11.548;2023-01-05T06:06:26;10.60;99.90
72865;DHT22;61000;48.120;11.548;2023-01-05T06:08:54;10.60;99.90
72865;DHT22;61000;48.120;11.548;2023-01-05T06:11:21;10.60;99.90
72865;DHT22;61000;48.120;11.548;2023-01-05T06:13:48;10.60;99.90
72865;DHT22;61000;48.120;11.548;2023-01-05T06:16:15;10.60;99.90
72865;DHT22;61000;48.120;11.548;2023-01-05T06:18:42;10.60;99.90
72865;DHT22;61000;48.120;11.548;2023-01-05T06:21:09;10.60;99.90
72865;DHT22;61000;48.120;11.548;2023-01-05T06:23:35;10.60;99.90
72865;DHT22;61000;48.120;11.548;2023-01-05T06:26:05;10.60;99.90
72865;DHT22;61000;48.120;11.548;2023-01-05T06:28:31;10.60;99.90
72865;DHT22;61000;48.120;11.548;2023-01-05T06:30:58;10.60;99.90
72865;DHT22;61000;48.120;11.548;2023-01-05T06:33:25;10.60;99.90
72865;DHT22;61000;48.120;11.548;2023-01-05T06:35:52;10.60;99.90
72865;DHT22;61000;48.120;11.548;2023-01-05T06:38:19;10.60;99.90
72865;DHT22;61000;48.120;11.548;2023-01-05T06:40:46;10.60;99.90
72865;DHT22;61000;48.120;11.548;2023-01-05T06:43:14;10.60;99.90
72865;DHT22;61000;48.120;11.548;2023-01-05T06:45:41;10.60;99.90
72865;DHT22;61000;48.120;11.548;2023-01-05T06:48:08;10.50;99.90
72865;DHT22;61000;48.120;11.548;2023-01-05T06:50:35;10.60;99.90
72865;DHT22;61000;48.120;11.548;2023-01-05T06:53:02;10.50;99.90
72865;DHT22;61000;48.120;11.548;2023-01-05T06:55:29;10.50;99.90
72865;DHT22;61000;48.120;11.548;2023-01-05T06:57:55;10.50;99.90
72865;DHT22;61000;48.120;11.548;2023-01-05T07:00:26;10.50;99.90
72865;DHT22;61000;48.120;11.548;2023-01-05T07:02:54;10.50;99.90
72865;DHT22;61000;48.120;11.548;2023-01-05T07:05:21;10.50;99.90
72865;DHT22;61000;48.120;11.548;2023-01-05T07:07:49;10.50;99.90
72865;DHT22;61000;48.120;11.548;2023-01-05T07:10:15;10.50;99.90
72865;DHT22;61000;48.120;11.548;2023-01-05T07:12:42;10.50;99.90
72865;DHT22;61000;48.120;11.548;2023-01-05T07:15:09;10.50;99.90
72865;DHT22;61000;48.120;11.548;2023-01-05T07:17:38;10.50;99.90
72865;DHT22;61000;48.120;11.548;2023-01-05T07:20:05;10.50;99.90
72865;DHT22;61000;48.120;11.548;2023-01-05T07:22:33;10.50;99.90
72865;DHT22;61000;48.120;11.548;2023-01-05T07:24:59;10.40;99.90
72865;DHT22;61000;48.120;11.548;2023-01-05T07:27:26;10.40;99.90
72865;DHT22;61000;48.120;11.548;2023-01-05T07:29:53;10.50;99.90
72865;DHT22;61000;48.120;11.548;2023-01-05T07:32:20;10.40;99.90
72865;DHT22;61000;48.120;11.548;2023-01-05T07:34:48;10.50;99.90
72865;DHT22;61000;48.120;11.548;2023-01-05T07:37:15;10.50;99.90
72865;DHT22;61000;48.120;11.548;2023-01-05T07:39:42;10.50;99.90
72865;DHT22;61000;48.120;11.548;2023-01-05T07:42:09;10.50;99.90
72865;DHT22;61000;48.120;11.548;2023-01-05T07:44:36;10.50;99.90
72865;DHT22;61000;48.120;11.548;2023-01-05T07:47:03;10.50;99.90
72865;DHT22;61000;48.120;11.548;2023-01-05T07:49:30;10.50;99.90
72865;DHT22;61000;48.120;11.548;2023-01-05T07:51:58;10.50;99.90
72865;DHT22;61000;48.120;11.548;2023-01-05T07:54:25;10.50;99.90
72865;DHT22;61000;48.120;11.548;2023-01-05T07:56:52;10.60;99.90
72865;DHT22;61000;48.120;11.548;2023-01-05T07:59:19;10.50;99.90
72865;DHT22;61000;48.120;11.548;2023-01-05T08:01:46;10.50;99.90
72865;DHT22;61000;48.120;11.548;2023-01-05T08:04:13;10.60;99.90
72865;DHT22;61000;48.120;11.548;2023-01-05T08:06:40;10.60;99.90
72865;DHT22;61000;48.120;11.548;2023-01-05T08:09:10;10.70;99.90
72865;DHT22;61000;48.120;11.548;2023-01-05T08:11:55;10.70;99.90
72865;DHT22;61000;48.120;11.548;2023-01-05T08:14:22;10.70;99.90
72865;DHT22;61000;48.120;11.548;2023-01-05T08:16:48;10.80;99.90
72865;DHT22;61000;48.120;11.548;2023-01-05T08:19:14;10.70;99.90
72865;DHT22;61000;48.120;11.548;2023-01-05T08:21:43;10.70;99.90
72865;DHT22;61000;48.120;11.548;2023-01-05T08:24:11;10.70;99.90
72865;DHT22;61000;48.120;11.548;2023-01-05T08:26:38;10.70;99.90
72865;DHT22;61000;48.120;11.548;2023-01-05T08:29:05;10.70;99.90
72865;DHT22;61000;48.120;11.548;2023-01-05T08:31:32;10.70;99.90
72865;DHT22;61000;48.120;11.548;2023-01-05T08:34:02;10.70;99.90
72865;DHT22;61000;48.120;11.548;2023-01-05T08:36:29;10.70;99.90
72865;DHT22;61000;48.120;11.548;2023-01-05T08:38:57;10.80;99.90
72865;DHT22;61000;48.120;11.548;2023-01-05T08:41:30;10.90;99.90
72865;DHT22;61000;48.120;11.548;2023-01-05T08:43:58;10.80;99.90
72865;DHT22;61000;48.120;11.548;2023-01-05T08:46:28;10.80;99.90
72865;DHT22;61000;48.120;11.548;2023-01-05T08:48:58;10.70;99.90
72865;DHT22;61000;48.120;11.548;2023-01-05T08:51:26;10.70;99.90
72865;DHT22;61000;48.120;11.548;2023-01-05T08:53:53;10.60;99.90
72865;DHT22;61000;48.120;11.548;2023-01-05T08:56:20;10.50;99.90
72865;DHT22;61000;48.120;11.548;2023-01-05T08:58:51;10.60;99.90
72865;DHT22;61000;48.120;11.548;2023-01-05T09:01:20;10.60;99.90
72865;DHT22;61000;48.120;11.548;2023-01-05T09:03:47;10.60;99.90
72865;DHT22;61000;48.120;11.548;2023-01-05T09:06:14;10.60;99.90
72865;DHT22;61000;48.120;11.548;2023-01-05T09:08:42;10.70;99.90
72865;DHT22;61000;48.120;11.548;2023-01-05T09:11:12;10.70;99.90
72865;DHT22;61000;48.120;11.548;2023-01-05T09:13:40;10.70;99.90
72865;DHT22;61000;48.120;11.548;2023-01-05T09:16:11;10.70;99.90
72865;DHT22;61000;48.120;11.548;2023-01-05T09:18:39;10.80;99.90
72865;DHT22;61000;48.120;11.548;2023-01-05T09:21:07;10.70;99.90
72865;DHT22;61000;48.120;11.548;2023-01-05T09:23:35;10.80;99.90
72865;DHT22;61000;48.120;11.548;2023-01-05T09:26:03;10.80;99.90
72865;DHT22;61000;48.120;11.548;2023-01-05T09:28:30;10.80;99.90
72865;DHT22;61000;48.120;11.548;2023-01-05T09:30:57;10.90;99.90
72865;DHT22;61000;48.120;11.548;2023-01-05T09:33:25;10.90;99.90
72865;DHT22;61000;48.120;11.548;2023-01-05T09:35:53;10.90;99.90
72865;DHT22;61000;48.120;11.548;2023-01-05T09:38:20;11.00;99.90
72865;DHT22;61000;48.120;11.548;2023-01-05T09:40:49;11.00;99.90
72865;DHT22;61000;48.120;11.548;2023-01-05T09:43:21;11.00;99.90
72865;DHT22;61000;48.120;11.548;2023-01-05T09:45:49;11.00;99.90
72865;DHT22;61000;48.120;11.548;2023-01-05T09:48:17;11.00;99.90
72865;DHT22;61000;48.120;11.548;2023-01-05T09:50:48;11.10;99.90
72865;DHT22;61000;48.120;11.548;2023-01-05T09:53:20;11.10;99.90
72865;DHT22;61000;48.120;11.548;2023-01-05T09:55:49;11.10;99.90
72865;DHT22;61000;48.120;11.548;2023-01-05T09:58:19;11.10;99.90
72865;DHT22;61000;48.120;11.548;2023-01-05T10:00:54;11.20;99.90
72865;DHT22;61000;48.120;11.548;2023-01-05T10:03:25;11.10;99.90
72865;DHT22;61000;48.120;11.548;2023-01-05T10:05:54;11.20;99.90
72865;DHT22;61000;48.120;11.548;2023-01-05T10:08:30;11.20;99.90
72865;DHT22;61000;48.120;11.548;2023-01-05T10:11:03;11.20;99.90
72865;DHT22;61000;48.120;11.548;2023-01-05T10:13:55;11.20;99.90
72865;DHT22;61000;48.120;11.548;2023-01-05T10:16:23;11.20;99.90
72865;DHT22;61000;48.120;11.548;2023-01-05T10:18:50;11.30;99.90
72865;DHT22;61000;48.120;11.548;2023-01-05T10:21:26;11.30;99.90
72865;DHT22;61000;48.120;11.548;2023-01-05T10:24:07;11.30;99.90
72865;DHT22;61000;48.120;11.548;2023-01-05T10:26:41;11.30;99.90
72865;DHT22;61000;48.120;11.548;2023-01-05T10:29:11;11.40;99.90
72865;DHT22;61000;48.120;11.548;2023-01-05T10:31:44;11.40;99.90
72865;DHT22;61000;48.120;11.548;2023-01-05T10:34:19;11.40;99.90
72865;DHT22;61000;48.120;11.548;2023-01-05T10:37:17;11.40;99.90
72865;DHT22;61000;48.120;11.548;2023-01-05T10:40:06;11.40;99.90
72865;DHT22;61000;48.120;11.548;2023-01-05T10:42:48;11.40;99.90
72865;DHT22;61000;48.120;11.548;2023-01-05T10:45:18;11.40;99.90
72865;DHT22;61000;48.120;11.548;2023-01-05T10:47:47;11.40;99.90
72865;DHT22;61000;48.120;11.548;2023-01-05T10:50:33;11.40;99.90
72865;DHT22;61000;48.120;11.548;2023-01-05T10:53:08;11.40;99.90
72865;DHT22;61000;48.120;11.548;2023-01-05T10:55:42;11.40;99.90
72865;DHT22;61000;48.120;11.548;2023-01-05T10:58:24;11.40;99.90
72865;DHT22;61000;48.120;11.548;2023-01-05T11:00:53;11.40;99.90
72865;DHT22;61000;48.120;11.548;2023-01-05T11:03:27;11.40;99.90
72865;DHT22;61000;48.120;11.548;2023-01-05T11:05:56;11.40;99.90
72865;DHT22;61000;48.120;11.548;2023-01-05T11:08:27;11.50;99.90
72865;DHT22;61000;48.120;11.548;2023-01-05T11:10:56;11.50;99.90
72865;DHT22;61000;48.120;11.548;2023-01-05T11:13:41;11.50;99.90
72865;DHT22;61000;48.120;11.548;2023-01-05T11:16:13;11.50;99.90
72865;DHT22;61000;48.120;11.548;2023-01-05T11:18:46;11.50;99.90
72865;DHT22;61000;48.120;11.548;2023-01-05T11:21:16;11.50;99.90
72865;DHT22;61000;48.120;11.548;2023-01-05T11:23:46;11.50;99.90
72865;DHT22;61000;48.120;11.548;2023-01-05T11:26:28;11.40;99.90
72865;DHT22;61000;48.120;11.548;2023-01-05T11:29:12;11.40;99.90
72865;DHT22;61000;48.120;11.548;2023-01-05T11:31:46;11.40;99.90
72865;DHT22;61000;48.120;11.548;2023-01-05T11:34:32;11.20;99.90
72865;DHT22;61000;48.120;11.548;2023-01-05T11:37:04;11.00;99.90
72865;DHT22;61000;48.120;11.548;2023-01-05T11:39:37;10.80;99.90
72865;DHT22;61000;48.120;11.548;2023-01-05T11:42:13;10.60;99.90
72865;DHT22;61000;48.120;11.548;2023-01-05T11:44:42;10.60;99.90
72865;DHT22;61000;48.120;11.548;2023-01-05T11:47:21;10.50;99.90
72865;DHT22;61000;48.120;11.548;2023-01-05T11:49:56;10.40;99.90
72865;DHT22;61000;48.120;11.548;2023-01-05T11:52:26;10.40;99.90
72865;DHT22;61000;48.120;11.548;2023-01-05T11:54:54;10.30;99.90
72865;DHT22;61000;48.120;11.548;2023-01-05T11:57:21;10.40;99.90
72865;DHT22;61000;48.120;11.548;2023-01-05T11:59:49;10.40;99.90
72865;DHT22;61000;48.120;11.548;2023-01-05T12:02:48;10.50;99.90
72865;DHT22;61000;48.120;11.548;2023-01-05T12:05:24;10.50;99.90
72865;DHT22;61000;48.120;11.548;2023-01-05T12:07:55;10.50;99.90
72865;DHT22;61000;48.120;11.548;2023-01-05T12:10:43;10.50;99.90
72865;DHT22;61000;48.120;11.548;2023-01-05T12:13:21;10.50;99.90
72865;DHT22;61000;48.120;11.548;2023-01-05T12:16:01;10.60;99.90
72865;DHT22;61000;48.120;11.548;2023-01-05T12:18:56;10.60;99.90
72865;DHT22;61000;48.120;11.548;2023-01-05T12:21:28;10.70;99.90
72865;DHT22;61000;48.120;11.548;2023-01-05T12:24:29;10.70;99.90
72865;DHT22;61000;48.120;11.548;2023-01-05T12:27:10;10.80;99.90
72865;DHT22;61000;48.120;11.548;2023-01-05T12:29:59;10.90;99.90
72865;DHT22;61000;48.120;11.548;2023-01-05T12:32:37;10.90;99.90
72865;DHT22;61000;48.120;11.548;2023-01-05T12:35:29;11.00;99.90
72865;DHT22;61000;48.120;11.548;2023-01-05T12:38:18;11.00;99.90
72865;DHT22;61000;48.120;11.548;2023-01-05T12:41:00;11.00;99.90
72865;DHT22;61000;48.120;11.548;2023-01-05T12:43:40;11.10;99.90
72865;DHT22;61000;48.120;11.548;2023-01-05T12:46:17;11.20;99.90
72865;DHT22;61000;48.120;11.548;2023-01-05T12:48:52;11.20;99.90
72865;DHT22;61000;48.120;11.548;2023-01-05T12:51:23;11.30;99.90
72865;DHT22;61000;48.120;11.548;2023-01-05T12:53:53;11.30;99.90
72865;DHT22;61000;48.120;11.548;2023-01-05T12:56:27;11.20;99.90
72865;DHT22;61000;48.120;11.548;2023-01-05T12:59:09;11.20;99.90
72865;DHT22;61000;48.120;11.548;2023-01-05T13:01:42;11.20;99.90
72865;DHT22;61000;48.120;11.548;2023-01-05T13:04:25;11.20;99.90
72865;DHT22;61000;48.120;11.548;2023-01-05T13:06:55;11.30;99.90
72865;DHT22;61000;48.120;11.548;2023-01-05T13:09:27;11.30;99.90
72865;DHT22;61000;48.120;11.548;2023-01-05T13:11:58;11.30;99.90
72865;DHT22;61000;48.120;11.548;2023-01-05T13:14:31;11.40;99.90
72865;DHT22;61000;48.120;11.548;2023-01-05T13:17:02;11.30;99.90
72865;DHT22;61000;48.120;11.548;2023-01-05T13:19:33;11.30;99.90
72865;DHT22;61000;48.120;11.548;2023-01-05T13:22:03;11.30;99.90
72865;DHT22;61000;48.120;11.548;2023-01-05T13:24:34;11.20;99.90
72865;DHT22;61000;48.120;11.548;2023-01-05T13:27:02;11.20;99.90
72865;DHT22;61000;48.120;11.548;2023-01-05T13:29:32;11.20;99.90
72865;DHT22;61000;48.120;11.548;2023-01-05T13:32:12;11.20;99.90
72865;DHT22;61000;48.120;11.548;2023-01-05T13:35:03;11.20;99.90
72865;DHT22;61000;48.120;11.548;2023-01-05T13:37:58;11.20;99.90
72865;DHT22;61000;48.120;11.548;2023-01-05T13:40:43;11.20;99.90
72865;DHT22;61000;48.120;11.548;2023-01-05T13:46:16;11.20;99.90
72865;DHT22;61000;48.120;11.548;2023-01-05T13:49:11;11.10;99.90
72865;DHT22;61000;48.120;11.548;2023-01-05T13:51:52;11.10;99.90
72865;DHT22;61000;48.120;11.548;2023-01-05T13:54:29;11.10;99.90
72865;DHT22;61000;48.120;11.548;2023-01-05T13:56:59;11.00;99.90
72865;DHT22;61000;48.120;11.548;2023-01-05T13:59:34;10.90;99.90
72865;DHT22;61000;48.120;11.548;2023-01-05T14:02:04;10.90;99.90
72865;DHT22;61000;48.120;11.548;2023-01-05T14:04:45;10.90;99.90
72865;DHT22;61000;48.120;11.548;2023-01-05T14:07:15;10.90;99.90
72865;DHT22;61000;48.120;11.548;2023-01-05T14:09:45;10.90;99.90
72865;DHT22;61000;48.120;11.548;2023-01-05T14:12:41;10.80;99.90
72865;DHT22;61000;48.120;11.548;2023-01-05T14:15:37;10.80;99.90
72865;DHT22;61000;48.120;11.548;2023-01-05T14:18:07;10.80;99.90
72865;DHT22;61000;48.120;11.548;2023-01-05T14:23:53;10.80;99.90
72865;DHT22;61000;48.120;11.548;2023-01-05T14:32:24;10.80;99.90
72865;DHT22;61000;48.120;11.548;2023-01-05T14:34:55;10.70;99.90
72865;DHT22;61000;48.120;11.548;2023-01-05T14:37:26;10.80;99.90
72865;DHT22;61000;48.120;11.548;2023-01-05T14:39:53;10.80;99.90
72865;DHT22;61000;48.120;11.548;2023-01-05T14:42:28;10.70;99.90
72865;DHT22;61000;48.120;11.548;2023-01-05T14:44:59;10.70;99.90
72865;DHT22;61000;48.120;11.548;2023-01-05T14:47:36;10.70;99.90
72865;DHT22;61000;48.120;11.548;2023-01-05T14:50:25;10.60;99.90
72865;DHT22;61000;48.120;11.548;2023-01-05T14:52:55;10.60;99.90
72865;DHT22;61000;48.120;11.548;2023-01-05T14:55:26;10.60;99.90
72865;DHT22;61000;48.120;11.548;2023-01-05T14:57:54;10.60;99.90
72865;DHT22;61000;48.120;11.548;2023-01-05T15:00:34;10.50;99.90
72865;DHT22;61000;48.120;11.548;2023-01-05T15:03:11;10.50;99.90
72865;DHT22;61000;48.120;11.548;2023-01-05T15:05:45;10.50;99.90
72865;DHT22;61000;48.120;11.548;2023-01-05T15:08:24;10.50;99.90
72865;DHT22;61000;48.120;11.548;2023-01-05T15:11:17;10.50;99.90
72865;DHT22;61000;48.120;11.548;2023-01-05T15:14:07;10.50;99.90
72865;DHT22;61000;48.120;11.548;2023-01-05T15:17:31;10.50;99.90
72865;DHT22;61000;48.120;11.548;2023-01-05T15:23:36;10.40;99.90
72865;DHT22;61000;48.120;11.548;2023-01-05T15:26:25;10.40;99.90
72865;DHT22;61000;48.120;11.548;2023-01-05T15:31:55;10.40;99.90
72865;DHT22;61000;48.120;11.548;2023-01-05T15:34:26;10.40;99.90
72865;DHT22;61000;48.120;11.548;2023-01-05T15:36:58;10.30;99.90
72865;DHT22;61000;48.120;11.548;2023-01-05T15:39:32;10.30;99.90
72865;DHT22;61000;48.120;11.548;2023-01-05T15:42:00;10.30;99.90
72865;DHT22;61000;48.120;11.548;2023-01-05T15:44:32;10.30;99.90
72865;DHT22;61000;48.120;11.548;2023-01-05T15:47:01;10.20;99.90
72865;DHT22;61000;48.120;11.548;2023-01-05T15:49:31;10.20;99.90
72865;DHT22;61000;48.120;11.548;2023-01-05T15:51:59;10.20;99.90
72865;DHT22;61000;48.120;11.548;2023-01-05T15:54:28;10.20;99.90
72865;DHT22;61000;48.120;11.548;2023-01-05T15:56:57;10.20;99.90
72865;DHT22;61000;48.120;11.548;2023-01-05T15:59:29;10.20;99.90
72865;DHT22;61000;48.120;11.548;2023-01-05T16:01:57;10.10;99.90
72865;DHT22;61000;48.120;11.548;2023-01-05T16:04:25;10.10;99.90
72865;DHT22;61000;48.120;11.548;2023-01-05T16:06:58;10.10;99.90
72865;DHT22;61000;48.120;11.548;2023-01-05T16:09:30;10.10;99.90
72865;DHT22;61000;48.120;11.548;2023-01-05T16:12:01;10.10;99.90
72865;DHT22;61000;48.120;11.548;2023-01-05T16:14:33;10.10;99.90